KDRM

Drummond Island Airport

Drummond Island, Michigan, USA
METAR KDRM 230455Z AUTO 00000KT 10SM OVC060 07/05 A2989 RMK AO2 T00660046
Observed Flight Rules
Oct-23 @ 04:55 UTC (23 minutes ago) Visual Flight Rules
Visibility Clouds
10 miles
  • Overcast at 6,000' AGL
Temperatures Readings
Current 7°C / 45°F
Dewpoint 5°C / 41°F
Humidity 87%
Altimeter 29.89" Hg
Pressure 1012 hPa
Elevation 204
METAR KDRM 230455Z AUTO 00000KT 10SM OVC060 07/05 A2989 RMK AO2 T00660046
Observed Flight Rules
Oct-23 @ 04:55 UTC
(23 minutes ago)
VFR
Clouds
  • Overcast at 6,000' AGL
Temperature Dewpoint
7°C / 45°F 5°C / 41°F
Humidity Altimeter Pressure
87% 29.89" Hg 1012 hPa